sensor_id;sensor_type;location;lat;lon;timestamp;P1;durP1;ratioP1;P2;durP2;ratioP2
38117;SDS011;23928;47.562;7.508;2022-07-06T00:01:15;2.63;;;1.50;;
38117;SDS011;23928;47.562;7.508;2022-07-06T00:03:41;4.90;;;1.50;;
38117;SDS011;23928;47.562;7.508;2022-07-06T00:06:07;2.93;;;1.53;;
38117;SDS011;23928;47.562;7.508;2022-07-06T00:08:33;6.97;;;1.73;;
38117;SDS011;23928;47.562;7.508;2022-07-06T00:10:58;4.57;;;1.80;;
38117;SDS011;23928;47.562;7.508;2022-07-06T00:13:24;2.67;;;1.43;;
38117;SDS011;23928;47.562;7.508;2022-07-06T00:15:50;5.27;;;1.47;;
38117;SDS011;23928;47.562;7.508;2022-07-06T00:18:15;4.83;;;1.90;;
38117;SDS011;23928;47.562;7.508;2022-07-06T00:20:41;2.17;;;1.37;;
38117;SDS011;23928;47.562;7.508;2022-07-06T00:23:07;5.13;;;1.37;;
38117;SDS011;23928;47.562;7.508;2022-07-06T00:25:32;2.03;;;1.50;;
38117;SDS011;23928;47.562;7.508;2022-07-06T00:27:58;1.20;;;1.10;;
38117;SDS011;23928;47.562;7.508;2022-07-06T00:30:24;2.90;;;1.83;;
38117;SDS011;23928;47.562;7.508;2022-07-06T00:32:49;1.97;;;1.47;;
38117;SDS011;23928;47.562;7.508;2022-07-06T00:35:15;4.10;;;1.53;;
38117;SDS011;23928;47.562;7.508;2022-07-06T00:37:40;2.63;;;1.70;;
38117;SDS011;23928;47.562;7.508;2022-07-06T00:40:06;1.97;;;1.50;;
38117;SDS011;23928;47.562;7.508;2022-07-06T00:42:42;1.50;;;1.20;;
38117;SDS011;23928;47.562;7.508;2022-07-06T00:45:11;2.20;;;1.40;;
38117;SDS011;23928;47.562;7.508;2022-07-06T00:47:38;1.83;;;1.53;;
38117;SDS011;23928;47.562;7.508;2022-07-06T00:50:05;3.57;;;1.40;;
38117;SDS011;23928;47.562;7.508;2022-07-06T00:52:47;1.60;;;1.23;;
38117;SDS011;23928;47.562;7.508;2022-07-06T00:55:13;2.50;;;1.33;;
38117;SDS011;23928;47.562;7.508;2022-07-06T00:57:40;2.90;;;1.57;;
38117;SDS011;23928;47.562;7.508;2022-07-06T01:00:07;4.57;;;1.40;;
38117;SDS011;23928;47.562;7.508;2022-07-06T01:02:35;2.27;;;1.47;;
38117;SDS011;23928;47.562;7.508;2022-07-06T01:05:03;2.40;;;1.50;;
38117;SDS011;23928;47.562;7.508;2022-07-06T01:07:29;4.27;;;1.87;;
38117;SDS011;23928;47.562;7.508;2022-07-06T01:09:55;2.97;;;1.70;;
38117;SDS011;23928;47.562;7.508;2022-07-06T01:12:22;2.80;;;1.33;;
38117;SDS011;23928;47.562;7.508;2022-07-06T01:14:48;4.50;;;1.60;;
38117;SDS011;23928;47.562;7.508;2022-07-06T01:17:15;3.30;;;1.40;;
38117;SDS011;23928;47.562;7.508;2022-07-06T01:19:41;4.43;;;1.47;;
38117;SDS011;23928;47.562;7.508;2022-07-06T01:22:08;1.53;;;1.43;;
38117;SDS011;23928;47.562;7.508;2022-07-06T01:24:36;2.17;;;1.60;;
38117;SDS011;23928;47.562;7.508;2022-07-06T01:27:03;5.27;;;1.53;;
38117;SDS011;23928;47.562;7.508;2022-07-06T01:29:31;1.90;;;1.20;;
38117;SDS011;23928;47.562;7.508;2022-07-06T01:31:57;2.73;;;1.50;;
38117;SDS011;23928;47.562;7.508;2022-07-06T01:34:23;2.80;;;1.57;;
38117;SDS011;23928;47.562;7.508;2022-07-06T01:36:49;3.87;;;1.60;;
38117;SDS011;23928;47.562;7.508;2022-07-06T01:39:15;3.00;;;1.60;;
38117;SDS011;23928;47.562;7.508;2022-07-06T01:41:40;3.63;;;1.70;;
38117;SDS011;23928;47.562;7.508;2022-07-06T01:44:06;6.10;;;1.63;;
38117;SDS011;23928;47.562;7.508;2022-07-06T01:46:33;4.00;;;1.63;;
38117;SDS011;23928;47.562;7.508;2022-07-06T01:48:59;4.27;;;1.70;;
38117;SDS011;23928;47.562;7.508;2022-07-06T01:51:25;3.87;;;1.70;;
38117;SDS011;23928;47.562;7.508;2022-07-06T01:53:50;2.57;;;1.67;;
38117;SDS011;23928;47.562;7.508;2022-07-06T01:56:17;7.97;;;1.83;;
38117;SDS011;23928;47.562;7.508;2022-07-06T01:58:44;5.53;;;1.83;;
38117;SDS011;23928;47.562;7.508;2022-07-06T02:01:11;4.50;;;1.70;;
38117;SDS011;23928;47.562;7.508;2022-07-06T02:03:38;3.90;;;1.73;;
38117;SDS011;23928;47.562;7.508;2022-07-06T02:06:05;2.30;;;1.63;;
38117;SDS011;23928;47.562;7.508;2022-07-06T02:08:32;2.60;;;1.50;;
38117;SDS011;23928;47.562;7.508;2022-07-06T02:10:58;3.80;;;1.63;;
38117;SDS011;23928;47.562;7.508;2022-07-06T02:13:24;7.50;;;1.50;;
38117;SDS011;23928;47.562;7.508;2022-07-06T02:15:50;5.10;;;1.73;;
38117;SDS011;23928;47.562;7.508;2022-07-06T02:18:15;2.53;;;1.50;;
38117;SDS011;23928;47.562;7.508;2022-07-06T02:20:41;3.67;;;1.93;;
38117;SDS011;23928;47.562;7.508;2022-07-06T02:23:07;3.83;;;1.70;;
38117;SDS011;23928;47.562;7.508;2022-07-06T02:25:33;2.70;;;1.60;;
38117;SDS011;23928;47.562;7.508;2022-07-06T02:27:58;6.10;;;1.83;;
38117;SDS011;23928;47.562;7.508;2022-07-06T02:30:24;1.60;;;1.47;;
38117;SDS011;23928;47.562;7.508;2022-07-06T02:32:50;2.53;;;1.73;;
38117;SDS011;23928;47.562;7.508;2022-07-06T02:35:16;3.17;;;1.80;;
38117;SDS011;23928;47.562;7.508;2022-07-06T02:37:41;4.83;;;1.73;;
38117;SDS011;23928;47.562;7.508;2022-07-06T02:40:07;6.17;;;1.83;;
38117;SDS011;23928;47.562;7.508;2022-07-06T02:42:33;3.90;;;1.70;;
38117;SDS011;23928;47.562;7.508;2022-07-06T02:45:00;3.87;;;1.63;;
38117;SDS011;23928;47.562;7.508;2022-07-06T02:47:25;3.97;;;1.80;;
38117;SDS011;23928;47.562;7.508;2022-07-06T02:49:51;6.47;;;2.10;;
38117;SDS011;23928;47.562;7.508;2022-07-06T02:52:17;2.80;;;1.60;;
38117;SDS011;23928;47.562;7.508;2022-07-06T02:54:43;3.70;;;1.87;;
38117;SDS011;23928;47.562;7.508;2022-07-06T02:57:09;2.90;;;1.70;;
38117;SDS011;23928;47.562;7.508;2022-07-06T02:59:34;3.37;;;1.53;;
38117;SDS011;23928;47.562;7.508;2022-07-06T03:02:01;6.13;;;1.60;;
38117;SDS011;23928;47.562;7.508;2022-07-06T03:04:27;2.63;;;1.47;;
38117;SDS011;23928;47.562;7.508;2022-07-06T03:06:53;1.73;;;1.60;;
38117;SDS011;23928;47.562;7.508;2022-07-06T03:09:19;2.50;;;1.77;;
38117;SDS011;23928;47.562;7.508;2022-07-06T03:11:44;4.97;;;1.87;;
38117;SDS011;23928;47.562;7.508;2022-07-06T03:14:10;4.27;;;1.83;;
38117;SDS011;23928;47.562;7.508;2022-07-06T03:16:35;3.27;;;1.70;;
38117;SDS011;23928;47.562;7.508;2022-07-06T03:19:01;1.70;;;1.60;;
38117;SDS011;23928;47.562;7.508;2022-07-06T03:21:27;2.73;;;1.60;;
38117;SDS011;23928;47.562;7.508;2022-07-06T03:23:53;4.67;;;1.73;;
38117;SDS011;23928;47.562;7.508;2022-07-06T03:26:18;4.37;;;1.93;;
38117;SDS011;23928;47.562;7.508;2022-07-06T03:28:44;5.27;;;1.60;;
38117;SDS011;23928;47.562;7.508;2022-07-06T03:31:09;2.60;;;1.73;;
38117;SDS011;23928;47.562;7.508;2022-07-06T03:33:35;3.57;;;1.57;;
38117;SDS011;23928;47.562;7.508;2022-07-06T03:36:01;3.87;;;2.00;;
38117;SDS011;23928;47.562;7.508;2022-07-06T03:38:26;4.60;;;2.13;;
38117;SDS011;23928;47.562;7.508;2022-07-06T03:40:52;4.50;;;2.17;;
38117;SDS011;23928;47.562;7.508;2022-07-06T03:43:18;3.20;;;1.87;;
38117;SDS011;23928;47.562;7.508;2022-07-06T03:45:43;3.80;;;2.07;;
38117;SDS011;23928;47.562;7.508;2022-07-06T03:48:09;4.20;;;1.60;;
38117;SDS011;23928;47.562;7.508;2022-07-06T03:50:34;1.97;;;1.80;;
38117;SDS011;23928;47.562;7.508;2022-07-06T03:53:00;5.17;;;2.00;;
38117;SDS011;23928;47.562;7.508;2022-07-06T03:55:26;3.37;;;1.63;;
38117;SDS011;23928;47.562;7.508;2022-07-06T03:57:52;3.07;;;1.43;;
38117;SDS011;23928;47.562;7.508;2022-07-06T04:00:17;2.70;;;2.03;;
38117;SDS011;23928;47.562;7.508;2022-07-06T04:02:43;5.63;;;1.97;;
38117;SDS011;23928;47.562;7.508;2022-07-06T04:05:09;2.40;;;1.80;;
38117;SDS011;23928;47.562;7.508;2022-07-06T04:07:34;3.63;;;2.23;;
38117;SDS011;23928;47.562;7.508;2022-07-06T04:10:00;4.43;;;2.10;;
38117;SDS011;23928;47.562;7.508;2022-07-06T04:12:26;2.87;;;1.90;;
38117;SDS011;23928;47.562;7.508;2022-07-06T04:14:51;5.63;;;2.30;;
38117;SDS011;23928;47.562;7.508;2022-07-06T04:17:17;7.97;;;2.13;;
38117;SDS011;23928;47.562;7.508;2022-07-06T04:20:01;2.53;;;1.80;;
38117;SDS011;23928;47.562;7.508;2022-07-06T04:22:27;2.43;;;1.70;;
38117;SDS011;23928;47.562;7.508;2022-07-06T04:24:53;2.87;;;2.10;;
38117;SDS011;23928;47.562;7.508;2022-07-06T04:27:19;3.80;;;2.40;;
38117;SDS011;23928;47.562;7.508;2022-07-06T04:29:44;5.90;;;2.10;;
38117;SDS011;23928;47.562;7.508;2022-07-06T04:32:10;4.30;;;2.00;;
38117;SDS011;23928;47.562;7.508;2022-07-06T04:34:35;3.73;;;2.17;;
38117;SDS011;23928;47.562;7.508;2022-07-06T04:37:02;3.27;;;2.10;;
38117;SDS011;23928;47.562;7.508;2022-07-06T04:39:27;3.20;;;2.10;;
38117;SDS011;23928;47.562;7.508;2022-07-06T04:41:55;3.43;;;2.50;;
38117;SDS011;23928;47.562;7.508;2022-07-06T04:44:21;3.10;;;2.40;;
38117;SDS011;23928;47.562;7.508;2022-07-06T04:46:47;2.00;;;1.80;;
38117;SDS011;23928;47.562;7.508;2022-07-06T04:49:12;2.20;;;2.00;;
38117;SDS011;23928;47.562;7.508;2022-07-06T04:51:38;3.07;;;2.23;;
38117;SDS011;23928;47.562;7.508;2022-07-06T04:54:04;2.33;;;2.13;;
38117;SDS011;23928;47.562;7.508;2022-07-06T04:56:30;7.63;;;2.23;;
38117;SDS011;23928;47.562;7.508;2022-07-06T04:58:56;2.67;;;2.23;;
38117;SDS011;23928;47.562;7.508;2022-07-06T05:01:21;4.03;;;2.27;;
38117;SDS011;23928;47.562;7.508;2022-07-06T05:03:47;3.20;;;1.83;;
38117;SDS011;23928;47.562;7.508;2022-07-06T05:06:12;2.83;;;2.57;;
38117;SDS011;23928;47.562;7.508;2022-07-06T05:08:38;3.13;;;2.40;;
38117;SDS011;23928;47.562;7.508;2022-07-06T05:11:04;2.50;;;2.30;;
38117;SDS011;23928;47.562;7.508;2022-07-06T05:13:29;3.60;;;2.30;;
38117;SDS011;23928;47.562;7.508;2022-07-06T05:15:55;3.47;;;2.23;;
38117;SDS011;23928;47.562;7.508;2022-07-06T05:18:20;4.33;;;2.50;;
38117;SDS011;23928;47.562;7.508;2022-07-06T05:20:46;4.63;;;2.57;;
38117;SDS011;23928;47.562;7.508;2022-07-06T05:23:12;2.90;;;2.13;;
38117;SDS011;23928;47.562;7.508;2022-07-06T05:25:38;3.83;;;2.83;;
38117;SDS011;23928;47.562;7.508;2022-07-06T05:28:04;3.57;;;2.67;;
38117;SDS011;23928;47.562;7.508;2022-07-06T05:30:30;3.37;;;2.50;;
38117;SDS011;23928;47.562;7.508;2022-07-06T05:32:55;2.97;;;2.53;;
38117;SDS011;23928;47.562;7.508;2022-07-06T05:35:21;5.73;;;2.80;;
38117;SDS011;23928;47.562;7.508;2022-07-06T05:37:47;4.27;;;2.83;;
38117;SDS011;23928;47.562;7.508;2022-07-06T05:40:12;4.17;;;2.80;;
38117;SDS011;23928;47.562;7.508;2022-07-06T05:42:38;3.23;;;2.53;;
38117;SDS011;23928;47.562;7.508;2022-07-06T05:45:04;4.93;;;2.80;;
38117;SDS011;23928;47.562;7.508;2022-07-06T05:47:30;6.30;;;2.90;;
38117;SDS011;23928;47.562;7.508;2022-07-06T05:50:14;6.07;;;2.90;;
38117;SDS011;23928;47.562;7.508;2022-07-06T05:52:44;5.80;;;3.13;;
38117;SDS011;23928;47.562;7.508;2022-07-06T05:55:19;6.97;;;3.40;;
38117;SDS011;23928;47.562;7.508;2022-07-06T05:57:45;3.47;;;2.67;;
38117;SDS011;23928;47.562;7.508;2022-07-06T06:00:10;5.90;;;3.50;;
38117;SDS011;23928;47.562;7.508;2022-07-06T06:02:37;3.87;;;3.17;;
38117;SDS011;23928;47.562;7.508;2022-07-06T06:05:04;5.83;;;3.30;;
38117;SDS011;23928;47.562;7.508;2022-07-06T06:07:32;5.73;;;3.63;;
38117;SDS011;23928;47.562;7.508;2022-07-06T06:09:58;6.80;;;3.60;;
38117;SDS011;23928;47.562;7.508;2022-07-06T06:12:24;6.30;;;3.63;;
38117;SDS011;23928;47.562;7.508;2022-07-06T06:14:49;5.57;;;3.80;;
38117;SDS011;23928;47.562;7.508;2022-07-06T06:17:15;4.07;;;3.60;;
38117;SDS011;23928;47.562;7.508;2022-07-06T06:19:41;6.17;;;3.63;;
38117;SDS011;23928;47.562;7.508;2022-07-06T06:22:06;5.63;;;3.70;;
38117;SDS011;23928;47.562;7.508;2022-07-06T06:24:32;6.13;;;3.60;;
38117;SDS011;23928;47.562;7.508;2022-07-06T06:26:57;5.03;;;3.83;;
38117;SDS011;23928;47.562;7.508;2022-07-06T06:29:24;3.87;;;3.47;;
38117;SDS011;23928;47.562;7.508;2022-07-06T06:31:49;4.93;;;3.57;;
38117;SDS011;23928;47.562;7.508;2022-07-06T06:34:15;8.27;;;4.00;;
38117;SDS011;23928;47.562;7.508;2022-07-06T06:36:41;5.90;;;3.60;;
38117;SDS011;23928;47.562;7.508;2022-07-06T06:39:06;5.37;;;3.50;;
38117;SDS011;23928;47.562;7.508;2022-07-06T06:41:32;6.73;;;3.90;;
38117;SDS011;23928;47.562;7.508;2022-07-06T06:43:57;5.63;;;3.80;;
38117;SDS011;23928;47.562;7.508;2022-07-06T06:46:23;8.87;;;4.13;;
38117;SDS011;23928;47.562;7.508;2022-07-06T06:48:49;6.97;;;3.90;;
38117;SDS011;23928;47.562;7.508;2022-07-06T06:51:14;5.03;;;3.77;;
38117;SDS011;23928;47.562;7.508;2022-07-06T06:53:40;7.53;;;4.50;;
38117;SDS011;23928;47.562;7.508;2022-07-06T06:56:06;4.03;;;3.63;;
38117;SDS011;23928;47.562;7.508;2022-07-06T06:58:32;4.43;;;3.67;;
38117;SDS011;23928;47.562;7.508;2022-07-06T07:00:57;6.10;;;3.67;;
38117;SDS011;23928;47.562;7.508;2022-07-06T07:03:23;11.03;;;4.60;;
38117;SDS011;23928;47.562;7.508;2022-07-06T07:05:48;5.80;;;3.70;;
38117;SDS011;23928;47.562;7.508;2022-07-06T07:08:14;9.50;;;4.67;;
38117;SDS011;23928;47.562;7.508;2022-07-06T07:10:40;5.50;;;4.10;;
38117;SDS011;23928;47.562;7.508;2022-07-06T07:13:05;7.13;;;4.00;;
38117;SDS011;23928;47.562;7.508;2022-07-06T07:15:31;8.97;;;4.40;;
38117;SDS011;23928;47.562;7.508;2022-07-06T07:17:57;5.10;;;4.10;;
38117;SDS011;23928;47.562;7.508;2022-07-06T07:20:23;6.30;;;4.23;;
38117;SDS011;23928;47.562;7.508;2022-07-06T07:22:48;4.60;;;3.87;;
38117;SDS011;23928;47.562;7.508;2022-07-06T07:25:14;6.07;;;4.50;;
38117;SDS011;23928;47.562;7.508;2022-07-06T07:27:40;5.13;;;4.43;;
38117;SDS011;23928;47.562;7.508;2022-07-06T07:30:05;6.47;;;4.07;;
38117;SDS011;23928;47.562;7.508;2022-07-06T07:32:31;6.80;;;4.27;;
38117;SDS011;23928;47.562;7.508;2022-07-06T07:34:57;5.30;;;3.77;;
38117;SDS011;23928;47.562;7.508;2022-07-06T07:37:23;7.30;;;3.93;;
38117;SDS011;23928;47.562;7.508;2022-07-06T07:39:48;5.20;;;4.27;;
38117;SDS011;23928;47.562;7.508;2022-07-06T07:42:14;7.07;;;4.27;;
38117;SDS011;23928;47.562;7.508;2022-07-06T07:44:39;7.30;;;4.10;;
38117;SDS011;23928;47.562;7.508;2022-07-06T07:47:06;4.43;;;3.20;;
38117;SDS011;23928;47.562;7.508;2022-07-06T07:49:31;6.67;;;4.33;;
38117;SDS011;23928;47.562;7.508;2022-07-06T07:51:57;6.23;;;3.90;;
38117;SDS011;23928;47.562;7.508;2022-07-06T07:54:23;5.20;;;4.07;;
38117;SDS011;23928;47.562;7.508;2022-07-06T07:56:48;8.10;;;4.23;;
38117;SDS011;23928;47.562;7.508;2022-07-06T07:59:14;7.47;;;4.33;;
38117;SDS011;23928;47.562;7.508;2022-07-06T08:01:40;5.43;;;3.87;;
38117;SDS011;23928;47.562;7.508;2022-07-06T08:04:05;5.73;;;4.10;;
38117;SDS011;23928;47.562;7.508;2022-07-06T08:06:31;5.70;;;3.77;;
38117;SDS011;23928;47.562;7.508;2022-07-06T08:08:57;5.80;;;4.07;;
38117;SDS011;23928;47.562;7.508;2022-07-06T08:11:23;6.07;;;4.00;;
38117;SDS011;23928;47.562;7.508;2022-07-06T08:13:49;8.17;;;4.07;;
38117;SDS011;23928;47.562;7.508;2022-07-06T08:16:14;6.40;;;3.70;;
38117;SDS011;23928;47.562;7.508;2022-07-06T08:18:40;5.77;;;3.67;;
38117;SDS011;23928;47.562;7.508;2022-07-06T08:21:07;5.53;;;3.40;;
38117;SDS011;23928;47.562;7.508;2022-07-06T08:23:32;5.20;;;4.10;;
38117;SDS011;23928;47.562;7.508;2022-07-06T08:26:00;6.60;;;3.47;;
38117;SDS011;23928;47.562;7.508;2022-07-06T08:28:26;4.43;;;3.30;;
38117;SDS011;23928;47.562;7.508;2022-07-06T08:30:52;8.47;;;3.77;;
38117;SDS011;23928;47.562;7.508;2022-07-06T08:33:19;6.10;;;3.67;;
38117;SDS011;23928;47.562;7.508;2022-07-06T08:35:45;8.93;;;4.57;;
38117;SDS011;23928;47.562;7.508;2022-07-06T08:38:11;6.57;;;4.07;;
38117;SDS011;23928;47.562;7.508;2022-07-06T08:40:36;4.90;;;3.73;;
38117;SDS011;23928;47.562;7.508;2022-07-06T08:43:05;5.50;;;3.40;;
38117;SDS011;23928;47.562;7.508;2022-07-06T08:45:30;6.03;;;3.87;;
38117;SDS011;23928;47.562;7.508;2022-07-06T08:48:00;5.80;;;3.40;;
38117;SDS011;23928;47.562;7.508;2022-07-06T08:50:30;7.70;;;3.87;;
38117;SDS011;23928;47.562;7.508;2022-07-06T08:52:57;7.40;;;3.70;;
38117;SDS011;23928;47.562;7.508;2022-07-06T08:55:22;6.37;;;3.10;;
38117;SDS011;23928;47.562;7.508;2022-07-06T08:57:49;3.60;;;3.00;;
38117;SDS011;23928;47.562;7.508;2022-07-06T09:00:16;3.77;;;3.20;;
38117;SDS011;23928;47.562;7.508;2022-07-06T09:02:41;5.43;;;3.10;;
38117;SDS011;23928;47.562;7.508;2022-07-06T09:05:08;3.37;;;3.00;;
38117;SDS011;23928;47.562;7.508;2022-07-06T09:07:36;5.77;;;2.90;;
38117;SDS011;23928;47.562;7.508;2022-07-06T09:10:02;6.70;;;2.90;;
38117;SDS011;23928;47.562;7.508;2022-07-06T09:12:28;4.53;;;2.67;;
38117;SDS011;23928;47.562;7.508;2022-07-06T09:14:57;2.77;;;2.43;;
38117;SDS011;23928;47.562;7.508;2022-07-06T09:17:26;7.23;;;2.97;;
38117;SDS011;23928;47.562;7.508;2022-07-06T09:19:53;4.33;;;2.30;;
38117;SDS011;23928;47.562;7.508;2022-07-06T09:22:27;2.93;;;2.47;;
38117;SDS011;23928;47.562;7.508;2022-07-06T09:25:05;3.93;;;2.30;;
38117;SDS011;23928;47.562;7.508;2022-07-06T09:27:43;4.73;;;2.53;;
38117;SDS011;23928;47.562;7.508;2022-07-06T09:30:19;4.43;;;2.50;;
38117;SDS011;23928;47.562;7.508;2022-07-06T09:32:48;4.30;;;2.43;;
38117;SDS011;23928;47.562;7.508;2022-07-06T09:35:19;3.50;;;2.47;;
38117;SDS011;23928;47.562;7.508;2022-07-06T09:37:45;3.93;;;2.30;;
38117;SDS011;23928;47.562;7.508;2022-07-06T09:40:17;4.40;;;2.50;;
38117;SDS011;23928;47.562;7.508;2022-07-06T09:42:44;7.40;;;2.60;;
38117;SDS011;23928;47.562;7.508;2022-07-06T09:45:10;4.93;;;2.37;;
38117;SDS011;23928;47.562;7.508;2022-07-06T09:47:36;6.70;;;2.60;;
38117;SDS011;23928;47.562;7.508;2022-07-06T09:50:04;2.97;;;2.10;;
38117;SDS011;23928;47.562;7.508;2022-07-06T09:52:33;2.57;;;2.20;;
38117;SDS011;23928;47.562;7.508;2022-07-06T09:55:00;3.93;;;2.47;;
38117;SDS011;23928;47.562;7.508;2022-07-06T09:57:30;4.57;;;2.53;;
38117;SDS011;23928;47.562;7.508;2022-07-06T09:59:56;4.13;;;2.50;;
38117;SDS011;23928;47.562;7.508;2022-07-06T10:02:23;3.53;;;2.23;;
38117;SDS011;23928;47.562;7.508;2022-07-06T10:04:51;5.90;;;2.47;;
38117;SDS011;23928;47.562;7.508;2022-07-06T10:07:18;3.83;;;2.20;;
38117;SDS011;23928;47.562;7.508;2022-07-06T10:09:46;4.80;;;2.87;;
38117;SDS011;23928;47.562;7.508;2022-07-06T10:12:13;2.67;;;2.10;;
38117;SDS011;23928;47.562;7.508;2022-07-06T10:14:41;3.67;;;2.50;;
38117;SDS011;23928;47.562;7.508;2022-07-06T10:17:08;6.50;;;2.63;;
38117;SDS011;23928;47.562;7.508;2022-07-06T10:19:33;5.97;;;2.70;;
38117;SDS011;23928;47.562;7.508;2022-07-06T10:22:00;5.43;;;2.83;;
38117;SDS011;23928;47.562;7.508;2022-07-06T10:24:27;4.23;;;2.40;;
38117;SDS011;23928;47.562;7.508;2022-07-06T10:26:55;5.10;;;2.43;;
38117;SDS011;23928;47.562;7.508;2022-07-06T10:29:21;3.70;;;2.23;;
38117;SDS011;23928;47.562;7.508;2022-07-06T10:31:48;2.67;;;2.03;;
38117;SDS011;23928;47.562;7.508;2022-07-06T10:34:17;3.37;;;2.00;;
38117;SDS011;23928;47.562;7.508;2022-07-06T10:36:47;3.80;;;1.97;;
38117;SDS011;23928;47.562;7.508;2022-07-06T10:39:15;4.23;;;2.20;;
38117;SDS011;23928;47.562;7.508;2022-07-06T10:41:59;3.40;;;2.30;;
38117;SDS011;23928;47.562;7.508;2022-07-06T10:44:26;6.07;;;2.40;;
38117;SDS011;23928;47.562;7.508;2022-07-06T10:46:55;4.87;;;2.00;;
38117;SDS011;23928;47.562;7.508;2022-07-06T10:49:23;3.87;;;2.50;;
38117;SDS011;23928;47.562;7.508;2022-07-06T10:51:50;4.53;;;2.27;;
38117;SDS011;23928;47.562;7.508;2022-07-06T10:54:16;5.83;;;2.90;;
38117;SDS011;23928;47.562;7.508;2022-07-06T10:56:47;4.47;;;2.40;;
38117;SDS011;23928;47.562;7.508;2022-07-06T10:59:19;4.67;;;2.50;;
38117;SDS011;23928;47.562;7.508;2022-07-06T11:04:38;4.60;;;2.10;;
38117;SDS011;23928;47.562;7.508;2022-07-06T11:07:11;2.07;;;1.83;;
38117;SDS011;23928;47.562;7.508;2022-07-06T11:09:41;2.83;;;1.90;;
38117;SDS011;23928;47.562;7.508;2022-07-06T11:12:24;2.47;;;1.83;;
38117;SDS011;23928;47.562;7.508;2022-07-06T11:14:50;4.43;;;2.00;;
38117;SDS011;23928;47.562;7.508;2022-07-06T11:17:17;2.60;;;1.80;;
38117;SDS011;23928;47.562;7.508;2022-07-06T11:22:15;3.13;;;2.03;;
38117;SDS011;23928;47.562;7.508;2022-07-06T11:24:43;1.83;;;1.73;;
38117;SDS011;23928;47.562;7.508;2022-07-06T11:27:09;2.27;;;1.87;;
38117;SDS011;23928;47.562;7.508;2022-07-06T11:29:34;5.63;;;2.33;;
38117;SDS011;23928;47.562;7.508;2022-07-06T11:32:03;3.03;;;1.90;;
38117;SDS011;23928;47.562;7.508;2022-07-06T11:34:32;2.13;;;1.90;;
38117;SDS011;23928;47.562;7.508;2022-07-06T11:37:03;3.07;;;1.90;;
38117;SDS011;23928;47.562;7.508;2022-07-06T11:39:33;4.30;;;2.00;;
38117;SDS011;23928;47.562;7.508;2022-07-06T11:42:06;2.93;;;2.10;;
38117;SDS011;23928;47.562;7.508;2022-07-06T11:44:35;2.07;;;1.90;;
38117;SDS011;23928;47.562;7.508;2022-07-06T11:47:03;3.87;;;1.80;;
38117;SDS011;23928;47.562;7.508;2022-07-06T11:49:30;3.67;;;1.87;;
38117;SDS011;23928;47.562;7.508;2022-07-06T11:51:56;2.27;;;2.07;;
38117;SDS011;23928;47.562;7.508;2022-07-06T11:54:23;3.07;;;2.00;;
38117;SDS011;23928;47.562;7.508;2022-07-06T11:56:54;3.60;;;1.80;;
38117;SDS011;23928;47.562;7.508;2022-07-06T12:02:02;3.77;;;1.90;;
38117;SDS011;23928;47.562;7.508;2022-07-06T12:04:29;1.97;;;1.70;;
38117;SDS011;23928;47.562;7.508;2022-07-06T12:06:59;2.17;;;1.77;;
38117;SDS011;23928;47.562;7.508;2022-07-06T12:09:37;4.40;;;1.90;;
38117;SDS011;23928;47.562;7.508;2022-07-06T12:12:04;1.80;;;1.50;;
38117;SDS011;23928;47.562;7.508;2022-07-06T12:14:31;2.63;;;1.60;;
38117;SDS011;23928;47.562;7.508;2022-07-06T12:17:07;2.53;;;1.70;;
38117;SDS011;23928;47.562;7.508;2022-07-06T12:19:38;3.23;;;2.10;;
38117;SDS011;23928;47.562;7.508;2022-07-06T12:22:05;4.00;;;1.80;;
38117;SDS011;23928;47.562;7.508;2022-07-06T12:24:32;3.83;;;1.83;;
38117;SDS011;23928;47.562;7.508;2022-07-06T12:26:59;2.37;;;2.00;;
38117;SDS011;23928;47.562;7.508;2022-07-06T12:29:45;3.20;;;1.93;;
38117;SDS011;23928;47.562;7.508;2022-07-06T12:32:18;4.07;;;1.87;;
38117;SDS011;23928;47.562;7.508;2022-07-06T12:34:47;2.27;;;1.90;;
38117;SDS011;23928;47.562;7.508;2022-07-06T12:37:26;2.33;;;1.80;;
38117;SDS011;23928;47.562;7.508;2022-07-06T12:39:52;3.40;;;1.80;;
38117;SDS011;23928;47.562;7.508;2022-07-06T12:42:17;2.40;;;1.77;;
38117;SDS011;23928;47.562;7.508;2022-07-06T12:44:48;3.70;;;1.90;;
38117;SDS011;23928;47.562;7.508;2022-07-06T12:47:19;4.13;;;1.93;;
38117;SDS011;23928;47.562;7.508;2022-07-06T12:49:46;6.50;;;2.13;;
38117;SDS011;23928;47.562;7.508;2022-07-06T12:52:12;1.70;;;1.60;;
38117;SDS011;23928;47.562;7.508;2022-07-06T12:54:46;2.10;;;1.70;;
38117;SDS011;23928;47.562;7.508;2022-07-06T12:57:20;2.17;;;1.97;;
38117;SDS011;23928;47.562;7.508;2022-07-06T13:07:25;2.80;;;1.83;;
38117;SDS011;23928;47.562;7.508;2022-07-06T13:09:51;3.00;;;1.80;;
38117;SDS011;23928;47.562;7.508;2022-07-06T13:12:18;1.80;;;1.70;;
38117;SDS011;23928;47.562;7.508;2022-07-06T13:14:44;2.30;;;1.70;;
38117;SDS011;23928;47.562;7.508;2022-07-06T13:17:10;1.90;;;1.73;;
38117;SDS011;23928;47.562;7.508;2022-07-06T13:19:36;3.40;;;1.90;;
38117;SDS011;23928;47.562;7.508;2022-07-06T13:22:01;2.33;;;1.60;;
38117;SDS011;23928;47.562;7.508;2022-07-06T13:24:27;5.30;;;1.87;;
38117;SDS011;23928;47.562;7.508;2022-07-06T13:26:53;4.53;;;2.13;;
38117;SDS011;23928;47.562;7.508;2022-07-06T13:29:20;4.20;;;1.80;;
38117;SDS011;23928;47.562;7.508;2022-07-06T13:31:45;2.60;;;2.10;;
38117;SDS011;23928;47.562;7.508;2022-07-06T13:34:11;4.90;;;2.17;;
38117;SDS011;23928;47.562;7.508;2022-07-06T13:36:38;4.43;;;1.93;;
38117;SDS011;23928;47.562;7.508;2022-07-06T13:39:04;2.27;;;1.90;;
38117;SDS011;23928;47.562;7.508;2022-07-06T13:41:30;3.60;;;1.90;;
38117;SDS011;23928;47.562;7.508;2022-07-06T13:43:57;2.17;;;1.93;;
38117;SDS011;23928;47.562;7.508;2022-07-06T13:46:25;3.07;;;1.90;;
38117;SDS011;23928;47.562;7.508;2022-07-06T13:48:54;10.37;;;4.80;;
38117;SDS011;23928;47.562;7.508;2022-07-06T13:51:19;4.13;;;2.23;;
38117;SDS011;23928;47.562;7.508;2022-07-06T13:53:45;25.80;;;8.07;;
38117;SDS011;23928;47.562;7.508;2022-07-06T13:56:11;4.10;;;2.20;;
38117;SDS011;23928;47.562;7.508;2022-07-06T13:58:37;3.80;;;2.00;;
38117;SDS011;23928;47.562;7.508;2022-07-06T14:01:03;3.67;;;2.00;;
38117;SDS011;23928;47.562;7.508;2022-07-06T14:03:29;3.10;;;1.83;;
38117;SDS011;23928;47.562;7.508;2022-07-06T14:05:57;2.97;;;1.93;;
38117;SDS011;23928;47.562;7.508;2022-07-06T14:08:25;5.00;;;2.10;;
38117;SDS011;23928;47.562;7.508;2022-07-06T14:10:51;2.80;;;2.03;;
38117;SDS011;23928;47.562;7.508;2022-07-06T14:13:18;3.57;;;2.03;;
38117;SDS011;23928;47.562;7.508;2022-07-06T14:15:44;2.50;;;2.00;;
38117;SDS011;23928;47.562;7.508;2022-07-06T14:18:09;4.60;;;2.03;;
38117;SDS011;23928;47.562;7.508;2022-07-06T14:20:35;3.60;;;1.90;;
38117;SDS011;23928;47.562;7.508;2022-07-06T14:23:01;2.20;;;1.90;;
38117;SDS011;23928;47.562;7.508;2022-07-06T14:25:26;3.33;;;2.20;;
38117;SDS011;23928;47.562;7.508;2022-07-06T14:27:52;5.53;;;1.97;;
38117;SDS011;23928;47.562;7.508;2022-07-06T14:30:18;4.13;;;2.20;;
38117;SDS011;23928;47.562;7.508;2022-07-06T14:32:43;3.93;;;2.00;;
38117;SDS011;23928;47.562;7.508;2022-07-06T14:35:09;3.97;;;2.17;;
38117;SDS011;23928;47.562;7.508;2022-07-06T14:37:36;3.90;;;2.10;;
38117;SDS011;23928;47.562;7.508;2022-07-06T14:40:02;2.80;;;1.90;;
38117;SDS011;23928;47.562;7.508;2022-07-06T14:42:28;3.87;;;2.10;;
38117;SDS011;23928;47.562;7.508;2022-07-06T14:44:54;3.00;;;1.97;;
38117;SDS011;23928;47.562;7.508;2022-07-06T14:47:19;2.20;;;2.00;;
38117;SDS011;23928;47.562;7.508;2022-07-06T14:49:45;6.83;;;2.20;;
38117;SDS011;23928;47.562;7.508;2022-07-06T14:52:11;3.40;;;2.40;;
38117;SDS011;23928;47.562;7.508;2022-07-06T14:54:37;3.33;;;2.20;;
38117;SDS011;23928;47.562;7.508;2022-07-06T14:57:03;2.13;;;1.93;;
38117;SDS011;23928;47.562;7.508;2022-07-06T14:59:29;3.63;;;2.27;;
38117;SDS011;23928;47.562;7.508;2022-07-06T15:01:55;4.80;;;2.30;;